createdAt,value
2022-11-17T00:00:42.939Z,15.90
2022-11-17T00:03:16.324Z,13.40
2022-11-17T00:05:44.692Z,11.20
2022-11-17T00:08:12.029Z,13.43
2022-11-17T00:10:39.058Z,13.27
2022-11-17T00:13:29.793Z,14.02
2022-11-17T00:15:56.902Z,14.05
2022-11-17T00:18:42.402Z,16.92
2022-11-17T00:21:23.638Z,13.98
2022-11-17T00:23:51.126Z,12.57
2022-11-17T00:26:30.448Z,15.60
2022-11-17T00:29:01.214Z,14.38
2022-11-17T00:31:48.573Z,14.75
2022-11-17T00:34:21.901Z,11.30
2022-11-17T00:36:52.635Z,15.25
2022-11-17T00:39:24.576Z,13.95
2022-11-17T00:41:51.648Z,14.27
2022-11-17T00:44:18.900Z,13.98
2022-11-17T00:46:45.952Z,11.88
2022-11-17T00:49:14.613Z,14.43
2022-11-17T00:51:41.922Z,12.48
2022-11-17T00:54:12.844Z,16.50
2022-11-17T00:56:40.898Z,11.40
2022-11-17T00:59:07.948Z,15.20
2022-11-17T01:01:35.457Z,14.82
2022-11-17T01:04:03.759Z,13.23
2022-11-17T01:06:47.081Z,14.13
2022-11-17T01:09:24.123Z,15.95
2022-11-17T01:11:52.988Z,10.93
2022-11-17T01:14:27.323Z,16.02
2022-11-17T01:16:54.840Z,12.20
2022-11-17T01:19:23.780Z,12.23
2022-11-17T01:21:51.163Z,11.93
2022-11-17T01:24:18.597Z,14.45
2022-11-17T01:26:46.202Z,11.70
2022-11-17T01:29:19.082Z,12.90
2022-11-17T01:31:51.635Z,11.60
2022-11-17T01:34:19.275Z,15.70
2022-11-17T01:37:04.794Z,16.48
2022-11-17T01:39:32.356Z,13.05
2022-11-17T01:42:11.641Z,14.10
2022-11-17T01:44:53.245Z,11.15
2022-11-17T01:47:20.135Z,13.40
2022-11-17T01:49:54.820Z,12.45
2022-11-17T01:52:23.432Z,11.88
2022-11-17T01:54:58.971Z,13.98
2022-11-17T01:57:35.938Z,15.07
2022-11-17T02:00:07.910Z,12.32
2022-11-17T02:02:36.882Z,12.45
2022-11-17T02:05:39.281Z,13.77
2022-11-17T02:08:07.823Z,16.65
2022-11-17T02:10:36.515Z,12.98
2022-11-17T02:13:04.466Z,11.90
2022-11-17T02:15:31.931Z,14.18
2022-11-17T02:18:00.474Z,11.52
2022-11-17T02:20:58.083Z,11.57
2022-11-17T02:24:01.650Z,11.40
2022-11-17T02:26:54.843Z,10.80
2022-11-17T02:29:33.522Z,12.68
2022-11-17T02:32:18.922Z,11.25
2022-11-17T02:34:48.153Z,10.32
2022-11-17T02:37:33.595Z,10.90
2022-11-17T02:40:30.825Z,13.75
2022-11-17T02:43:29.982Z,13.13
2022-11-17T02:46:12.436Z,20.17
2022-11-17T02:48:46.350Z,12.50
2022-11-17T02:51:22.233Z,9.77
2022-11-17T02:53:53.417Z,10.77
2022-11-17T02:56:21.050Z,11.75
2022-11-17T02:58:53.122Z,10.60
2022-11-17T03:01:44.491Z,12.13
2022-11-17T03:04:35.863Z,10.50
2022-11-17T03:07:24.196Z,11.82
2022-11-17T03:10:22.534Z,11.70
2022-11-17T03:13:11.054Z,13.82
2022-11-17T03:16:08.686Z,11.98
2022-11-17T03:19:12.005Z,11.52
2022-11-17T03:21:43.702Z,13.60
2022-11-17T03:24:32.749Z,12.90
2022-11-17T03:27:33.673Z,14.60
2022-11-17T03:30:08.549Z,13.98
2022-11-17T03:32:43.855Z,13.47
2022-11-17T03:35:21.901Z,15.30
2022-11-17T03:37:58.636Z,15.52
2022-11-17T03:40:29.619Z,15.80
2022-11-17T03:43:01.085Z,22.65
2022-11-17T03:45:40.840Z,15.55
2022-11-17T03:48:16.693Z,16.15
2022-11-17T03:53:37.222Z,14.40
2022-11-17T03:56:16.557Z,18.80
2022-11-17T03:59:18.357Z,18.42
2022-11-17T04:01:45.945Z,17.40
2022-11-17T04:04:22.396Z,15.32
2022-11-17T04:06:55.391Z,13.60
2022-11-17T04:09:24.568Z,15.95
2022-11-17T04:12:10.549Z,16.23
2022-11-17T04:14:56.395Z,14.43
2022-11-17T04:19:50.634Z,15.48
2022-11-17T04:22:17.685Z,14.25
2022-11-17T04:24:44.694Z,15.50
2022-11-17T04:27:30.492Z,20.23
2022-11-17T04:29:57.594Z,14.95
2022-11-17T04:32:24.615Z,17.40
2022-11-17T04:34:51.737Z,14.32
2022-11-17T04:37:18.770Z,16.60
2022-11-17T04:39:46.110Z,13.75
2022-11-17T04:42:13.137Z,18.17
2022-11-17T04:44:40.220Z,23.85
2022-11-17T04:47:07.374Z,20.98
2022-11-17T04:49:34.425Z,23.45
2022-11-17T04:52:01.628Z,21.42
2022-11-17T04:54:28.810Z,23.45
2022-11-17T04:56:56.313Z,24.60
2022-11-17T04:59:23.854Z,17.75
2022-11-17T05:01:51.485Z,23.05
2022-11-17T05:04:39.485Z,17.40
2022-11-17T05:07:08.320Z,16.80
2022-11-17T05:09:35.435Z,17.92
2022-11-17T05:12:21.359Z,19.23
2022-11-17T05:14:50.436Z,17.73
2022-11-17T05:17:17.970Z,18.65
2022-11-17T05:19:47.972Z,16.55
2022-11-17T05:22:41.133Z,18.42
2022-11-17T05:25:09.366Z,18.00
2022-11-17T05:27:36.923Z,22.38
2022-11-17T05:30:07.713Z,16.52
2022-11-17T05:32:35.213Z,16.73
2022-11-17T05:35:02.303Z,18.17
2022-11-17T05:37:29.419Z,16.75
2022-11-17T05:39:56.491Z,19.08
2022-11-17T05:42:23.643Z,20.77
2022-11-17T05:44:50.683Z,22.45
2022-11-17T05:47:17.820Z,27.05
2022-11-17T05:49:44.941Z,25.40
2022-11-17T05:52:11.971Z,31.27
2022-11-17T05:54:39.011Z,27.23
2022-11-17T05:57:16.115Z,30.52
2022-11-17T05:59:51.463Z,21.98
2022-11-17T06:02:35.053Z,17.88
2022-11-17T06:05:03.482Z,20.45
2022-11-17T06:07:30.747Z,22.40
2022-11-17T06:09:57.877Z,18.48
2022-11-17T06:12:24.960Z,16.65
2022-11-17T06:14:51.975Z,19.48
2022-11-17T06:17:29.780Z,23.05
2022-11-17T06:20:32.127Z,16.50
2022-11-17T06:23:04.087Z,16.90
2022-11-17T06:25:35.042Z,14.00
2022-11-17T06:28:06.227Z,17.23
2022-11-17T06:30:35.730Z,16.15
2022-11-17T06:33:04.268Z,15.23
2022-11-17T06:35:33.510Z,15.07
2022-11-17T06:38:01.792Z,15.65
2022-11-17T06:40:29.339Z,15.77
2022-11-17T06:43:09.467Z,19.20
2022-11-17T06:45:42.681Z,26.00
2022-11-17T06:48:12.497Z,21.52
2022-11-17T06:50:39.879Z,18.92
2022-11-17T06:53:10.049Z,20.85
2022-11-17T06:55:37.951Z,18.70
2022-11-17T06:58:12.870Z,18.30
2022-11-17T07:00:40.019Z,20.27
2022-11-17T07:03:10.894Z,19.85
2022-11-17T07:05:40.207Z,21.58
2022-11-17T07:08:08.914Z,27.60
2022-11-17T07:10:36.805Z,22.58
2022-11-17T07:13:04.098Z,18.58
2022-11-17T07:15:31.777Z,20.73
2022-11-17T07:17:58.903Z,19.33
2022-11-17T07:20:26.013Z,20.30
2022-11-17T07:23:00.073Z,23.30
2022-11-17T07:25:27.119Z,24.58
2022-11-17T07:28:00.556Z,23.67
2022-11-17T07:30:27.688Z,21.52
2022-11-17T07:32:55.104Z,25.95
2022-11-17T07:35:22.266Z,31.35
2022-11-17T07:37:49.408Z,28.65
2022-11-17T07:40:16.596Z,20.67
2022-11-17T07:42:49.841Z,22.42
2022-11-17T07:45:17.048Z,24.40
2022-11-17T07:47:44.091Z,24.58
2022-11-17T07:50:11.164Z,21.88
2022-11-17T07:52:41.418Z,28.90
2022-11-17T07:55:09.085Z,24.58
2022-11-17T07:57:36.333Z,26.42
2022-11-17T08:00:04.367Z,25.48
2022-11-17T08:02:31.489Z,27.58
2022-11-17T08:04:58.721Z,26.73
2022-11-17T08:07:25.790Z,20.80
2022-11-17T08:09:53.088Z,26.38
2022-11-17T08:12:20.111Z,21.77
2022-11-17T08:14:47.161Z,23.17
2022-11-17T08:17:14.184Z,20.10
2022-11-17T08:19:41.300Z,20.25
2022-11-17T08:22:08.473Z,21.42
2022-11-17T08:24:35.604Z,23.02
2022-11-17T08:27:03.249Z,23.88
2022-11-17T08:29:30.342Z,25.40
2022-11-17T08:31:57.348Z,28.92
2022-11-17T08:34:24.392Z,26.67
2022-11-17T08:36:51.440Z,29.70
2022-11-17T08:39:18.489Z,34.17
2022-11-17T08:41:45.592Z,25.08
2022-11-17T08:44:12.652Z,32.00
2022-11-17T08:46:39.716Z,28.58
2022-11-17T08:49:06.754Z,36.15
2022-11-17T08:51:33.817Z,33.40
2022-11-17T08:54:00.935Z,28.38
2022-11-17T08:56:28.130Z,27.13
2022-11-17T08:58:55.254Z,25.40
2022-11-17T09:01:22.354Z,25.13
2022-11-17T09:03:49.458Z,31.85
2022-11-17T09:06:18.090Z,27.10
2022-11-17T09:08:46.926Z,28.05
2022-11-17T09:11:14.978Z,28.88
2022-11-17T09:13:42.315Z,26.85
2022-11-17T09:16:13.238Z,27.48
2022-11-17T09:18:41.650Z,32.78
2022-11-17T09:21:12.331Z,31.52
2022-11-17T09:23:39.943Z,25.75
2022-11-17T09:26:14.045Z,30.25
2022-11-17T09:28:42.084Z,43.90
2022-11-17T09:31:13.854Z,45.97
2022-11-17T09:33:42.753Z,42.25
2022-11-17T09:36:12.482Z,43.47
2022-11-17T09:38:40.369Z,43.42
2022-11-17T09:41:40.719Z,37.17
2022-11-17T09:44:23.609Z,31.63
2022-11-17T09:47:12.469Z,36.35
2022-11-17T09:50:27.196Z,36.35
2022-11-17T09:53:12.433Z,28.45
2022-11-17T09:55:47.181Z,31.40
2022-11-17T09:58:50.737Z,32.63
2022-11-17T10:01:21.493Z,34.42
2022-11-17T10:03:51.366Z,27.65
2022-11-17T10:06:25.495Z,32.10
2022-11-17T10:09:21.028Z,31.27
2022-11-17T10:11:52.841Z,28.67
2022-11-17T10:14:23.599Z,31.35
2022-11-17T10:16:59.109Z,26.83
2022-11-17T10:19:30.224Z,35.83
2022-11-17T10:22:03.090Z,29.90
2022-11-17T10:24:57.932Z,31.98
2022-11-17T10:27:30.746Z,35.30
2022-11-17T10:30:19.919Z,28.13
2022-11-17T10:33:00.192Z,27.85
2022-11-17T10:35:35.133Z,27.55
2022-11-17T10:38:03.523Z,24.97
2022-11-17T10:40:51.692Z,21.38
2022-11-17T10:43:26.818Z,19.90
2022-11-17T10:46:06.944Z,23.77
2022-11-17T10:48:39.545Z,23.92
2022-11-17T10:51:19.621Z,20.73
2022-11-17T10:54:17.403Z,20.38
2022-11-17T10:56:53.753Z,20.05
2022-11-17T10:59:33.327Z,21.00
2022-11-17T11:02:39.334Z,17.42
2022-11-17T11:05:09.178Z,20.90
2022-11-17T11:07:38.130Z,20.85
2022-11-17T11:10:31.924Z,24.38
2022-11-17T11:13:22.709Z,19.70
2022-11-17T11:15:49.893Z,21.10
2022-11-17T11:18:19.930Z,28.08
2022-11-17T11:21:07.808Z,30.42
2022-11-17T11:24:01.366Z,17.42
2022-11-17T11:27:09.817Z,18.10
2022-11-17T11:29:48.085Z,19.58
2022-11-17T11:32:29.624Z,16.08
2022-11-17T11:35:16.994Z,18.63
2022-11-17T11:38:08.599Z,18.02
2022-11-17T11:40:44.572Z,15.93
2022-11-17T11:43:40.668Z,19.58
2022-11-17T11:46:25.444Z,20.02
2022-11-17T11:48:57.205Z,17.83
2022-11-17T11:51:38.024Z,14.02
2022-11-17T11:54:21.326Z,14.15
2022-11-17T11:56:48.628Z,14.80
2022-11-17T11:59:56.297Z,13.73
2022-11-17T12:02:41.959Z,14.68
2022-11-17T12:05:46.175Z,14.23
2022-11-17T12:08:46.871Z,12.75
2022-11-17T12:11:34.500Z,11.07
2022-11-17T12:14:04.958Z,15.02
2022-11-17T12:16:40.140Z,11.90
2022-11-17T12:19:57.084Z,14.85
2022-11-17T12:22:30.155Z,11.80
2022-11-17T12:25:18.167Z,14.23
2022-11-17T12:27:51.313Z,14.40
2022-11-17T12:30:33.603Z,14.52
2022-11-17T12:33:04.822Z,13.43
2022-11-17T12:35:37.054Z,15.27
2022-11-17T12:38:16.506Z,11.05
2022-11-17T12:40:48.662Z,7.78
2022-11-17T12:43:15.675Z,16.63
2022-11-17T12:46:33.252Z,9.38
2022-11-17T12:52:06.987Z,11.27
2022-11-17T12:54:33.919Z,10.07
2022-11-17T12:57:23.882Z,13.55
2022-11-17T13:00:24.267Z,15.38
2022-11-17T13:02:58.611Z,11.27
2022-11-17T13:05:30.178Z,12.75
2022-11-17T13:08:22.583Z,14.32
2022-11-17T13:11:05.293Z,17.58
2022-11-17T13:13:36.778Z,20.02
2022-11-17T13:16:04.804Z,16.63
2022-11-17T13:18:39.989Z,16.05
2022-11-17T13:21:25.317Z,16.33
2022-11-17T13:23:53.591Z,18.20
2022-11-17T13:26:24.599Z,17.77
2022-11-17T13:29:08.105Z,17.15
2022-11-17T13:31:35.966Z,15.82
2022-11-17T13:34:13.602Z,15.93
2022-11-17T13:36:58.380Z,14.70
2022-11-17T13:39:29.559Z,16.83
2022-11-17T13:42:01.138Z,23.10
2022-11-17T13:44:28.850Z,15.65
2022-11-17T13:47:27.089Z,14.52
2022-11-17T13:49:54.134Z,13.93
2022-11-17T13:52:45.340Z,18.83
2022-11-17T13:55:20.436Z,14.07
2022-11-17T13:58:08.423Z,12.77
2022-11-17T14:00:35.836Z,12.85
2022-11-17T14:03:06.179Z,13.63
2022-11-17T14:05:34.123Z,16.05
2022-11-17T14:08:32.268Z,15.80
2022-11-17T14:11:21.219Z,15.55
2022-11-17T14:13:53.983Z,12.15
2022-11-17T14:16:25.942Z,12.55
2022-11-17T14:19:06.281Z,11.20
2022-11-17T14:21:33.581Z,14.07
2022-11-17T14:24:11.955Z,12.98
2022-11-17T14:26:47.348Z,12.02
2022-11-17T14:29:14.432Z,12.82
2022-11-17T14:31:41.651Z,14.43
2022-11-17T14:34:08.786Z,12.15
2022-11-17T14:36:38.164Z,13.15
2022-11-17T14:39:17.373Z,12.07
2022-11-17T14:41:48.120Z,13.43
2022-11-17T14:44:15.637Z,12.00
2022-11-17T14:46:42.811Z,13.43
2022-11-17T14:49:10.502Z,15.50
2022-11-17T14:51:37.616Z,14.13
2022-11-17T14:54:04.915Z,11.32
2022-11-17T14:56:32.057Z,9.23
2022-11-17T14:58:59.900Z,11.60
2022-11-17T15:01:31.147Z,22.52
2022-11-17T15:04:15.497Z,12.40
2022-11-17T15:06:48.991Z,12.27
2022-11-17T15:09:16.558Z,18.75
2022-11-17T15:11:43.639Z,19.80
2022-11-17T15:14:11.485Z,16.95
2022-11-17T15:16:38.581Z,13.18
2022-11-17T15:19:06.824Z,12.88
2022-11-17T15:21:34.000Z,14.52
2022-11-17T15:24:03.425Z,13.88
2022-11-17T15:26:30.652Z,12.10
2022-11-17T15:28:58.002Z,13.10
2022-11-17T15:31:25.302Z,10.93
2022-11-17T15:33:52.407Z,10.57
2022-11-17T15:36:22.941Z,11.90
2022-11-17T15:38:53.340Z,12.13
2022-11-17T15:41:21.290Z,12.48
2022-11-17T15:43:48.688Z,12.35
2022-11-17T15:46:18.368Z,9.75
2022-11-17T15:48:49.242Z,11.00
2022-11-17T15:51:19.437Z,11.52
2022-11-17T15:53:48.697Z,10.85
2022-11-17T15:56:21.465Z,13.70
2022-11-17T15:58:55.879Z,10.30
2022-11-17T16:01:32.812Z,10.50
2022-11-17T16:04:09.636Z,10.48
2022-11-17T16:06:42.342Z,11.40
2022-11-17T16:09:10.265Z,13.77
2022-11-17T16:11:37.953Z,13.13
2022-11-17T16:14:05.912Z,12.18
2022-11-17T16:16:39.120Z,11.82
2022-11-17T16:19:07.140Z,16.17
2022-11-17T16:21:34.325Z,15.77
2022-11-17T16:24:02.350Z,10.13
2022-11-17T16:26:30.629Z,17.63
2022-11-17T16:29:04.290Z,9.23
2022-11-17T16:31:34.526Z,14.95
2022-11-17T16:34:10.818Z,12.55
2022-11-17T16:36:40.638Z,10.50
2022-11-17T16:39:11.885Z,9.70
2022-11-17T16:41:42.106Z,11.80
2022-11-17T16:44:12.991Z,10.57
2022-11-17T16:46:44.409Z,11.05
2022-11-17T16:49:16.239Z,10.93
2022-11-17T16:51:53.938Z,12.48
2022-11-17T16:54:21.483Z,14.30
2022-11-17T16:56:49.134Z,9.90
2022-11-17T16:59:17.212Z,12.88
2022-11-17T17:01:47.757Z,10.45
2022-11-17T17:04:16.387Z,10.00
2022-11-17T17:06:45.726Z,13.32
2022-11-17T17:09:15.600Z,10.68
2022-11-17T17:11:43.424Z,11.82
2022-11-17T17:14:14.907Z,13.45
2022-11-17T17:16:44.172Z,12.57
2022-11-17T17:19:14.319Z,11.77
2022-11-17T17:21:43.741Z,15.85
2022-11-17T17:24:11.873Z,15.15
2022-11-17T17:26:40.544Z,16.27
2022-11-17T17:29:09.176Z,16.15
2022-11-17T17:31:41.563Z,13.65
2022-11-17T17:34:11.894Z,15.65
2022-11-17T17:36:40.108Z,16.02
2022-11-17T17:39:11.969Z,19.45
2022-11-17T17:41:41.434Z,18.40
2022-11-17T17:44:15.438Z,16.45
2022-11-17T17:46:43.836Z,15.48
2022-11-17T17:49:12.179Z,16.48
2022-11-17T17:51:45.829Z,13.70
2022-11-17T17:54:20.015Z,14.40
2022-11-17T17:56:48.472Z,14.98
2022-11-17T17:59:17.208Z,15.98
2022-11-17T18:01:47.897Z,18.55
2022-11-17T18:04:16.838Z,16.17
2022-11-17T18:06:49.748Z,19.23
2022-11-17T18:09:20.710Z,17.27
2022-11-17T18:11:51.035Z,17.23
2022-11-17T18:14:24.911Z,20.60
2022-11-17T18:16:54.653Z,18.05
2022-11-17T18:19:29.724Z,16.35
2022-11-17T18:22:01.137Z,17.77
2022-11-17T18:24:30.297Z,17.77
2022-11-17T18:26:59.808Z,18.80
2022-11-17T18:29:32.995Z,15.38
2022-11-17T18:32:00.651Z,16.52
2022-11-17T18:34:28.657Z,17.35
2022-11-17T18:36:59.710Z,17.35
2022-11-17T18:39:47.642Z,18.33
2022-11-17T18:42:17.585Z,15.23
2022-11-17T18:44:47.989Z,16.10
2022-11-17T18:47:15.993Z,16.17
2022-11-17T18:49:44.329Z,16.80
2022-11-17T18:52:13.692Z,18.25
2022-11-17T18:54:41.905Z,21.17
2022-11-17T18:57:10.068Z,16.13
2022-11-17T18:59:39.030Z,17.05
2022-11-17T19:02:06.589Z,17.90
2022-11-17T19:04:34.557Z,17.98
2022-11-17T19:07:02.878Z,22.65
2022-11-17T19:09:32.045Z,19.70
2022-11-17T19:12:00.850Z,27.48
2022-11-17T19:14:29.174Z,17.40
2022-11-17T19:16:57.349Z,19.65
2022-11-17T19:19:25.477Z,18.20
2022-11-17T19:21:54.297Z,16.50
2022-11-17T19:24:23.355Z,18.52
2022-11-17T19:26:52.702Z,18.85
2022-11-17T19:29:22.418Z,22.58
2022-11-17T19:31:52.559Z,17.48
2022-11-17T19:34:20.960Z,21.73
2022-11-17T19:36:50.884Z,20.33
2022-11-17T19:39:19.607Z,19.55
2022-11-17T19:41:50.292Z,26.25
2022-11-17T19:44:21.450Z,19.67
2022-11-17T19:46:49.977Z,21.73
2022-11-17T19:49:19.673Z,23.25
2022-11-17T19:51:47.709Z,21.38
2022-11-17T19:54:18.477Z,21.65
2022-11-17T19:56:46.780Z,22.52
2022-11-17T19:59:16.869Z,21.52
2022-11-17T20:01:55.805Z,23.80
2022-11-17T20:04:23.670Z,23.63
2022-11-17T20:06:52.397Z,22.00
2022-11-17T20:09:22.932Z,23.05
2022-11-17T20:11:52.112Z,28.17
2022-11-17T20:14:20.139Z,21.48
2022-11-17T20:16:48.266Z,22.95
2022-11-17T20:19:16.679Z,23.48
2022-11-17T20:21:47.317Z,23.77
2022-11-17T20:24:15.034Z,20.85
2022-11-17T20:26:44.293Z,21.55
2022-11-17T20:29:13.094Z,25.55
2022-11-17T20:31:43.421Z,23.30
2022-11-17T20:34:12.788Z,24.45
2022-11-17T20:36:41.093Z,27.40
2022-11-17T20:39:09.150Z,24.40
2022-11-17T20:41:38.294Z,24.25
2022-11-17T20:44:24.202Z,22.58
2022-11-17T20:46:54.953Z,24.17
2022-11-17T20:49:24.825Z,21.17
2022-11-17T20:51:52.361Z,24.25
2022-11-17T20:54:20.192Z,23.83
2022-11-17T20:56:48.236Z,25.63
2022-11-17T20:59:19.999Z,25.60
2022-11-17T21:01:49.554Z,21.90
2022-11-17T21:04:18.167Z,22.70
2022-11-17T21:06:45.718Z,23.67
2022-11-17T21:09:13.104Z,25.55
2022-11-17T21:11:58.986Z,25.42
2022-11-17T21:14:28.493Z,23.60
2022-11-17T21:17:00.499Z,23.65
2022-11-17T21:19:28.475Z,23.50
2022-11-17T21:21:55.797Z,23.23
2022-11-17T21:24:23.425Z,23.33
2022-11-17T21:26:54.979Z,25.35
2022-11-17T21:29:22.891Z,29.67
2022-11-17T21:31:50.278Z,23.35
2022-11-17T21:34:17.767Z,25.90
2022-11-17T21:36:45.049Z,26.05
2022-11-17T21:39:18.514Z,23.80
2022-11-17T21:41:46.037Z,27.42
2022-11-17T21:44:14.255Z,23.00
2022-11-17T21:46:41.578Z,24.25
2022-11-17T21:49:08.851Z,23.98
2022-11-17T21:51:38.613Z,27.75
2022-11-17T21:54:09.804Z,24.23
2022-11-17T21:56:37.040Z,28.33
2022-11-17T21:59:10.084Z,24.13
2022-11-17T22:01:37.462Z,26.52
2022-11-17T22:04:05.091Z,24.98
2022-11-17T22:06:32.472Z,26.77
2022-11-17T22:09:00.196Z,26.13
2022-11-17T22:11:36.007Z,24.90
2022-11-17T22:14:22.331Z,25.67
2022-11-17T22:16:52.309Z,25.50
2022-11-17T22:19:22.194Z,29.45
2022-11-17T22:21:53.308Z,23.55
2022-11-17T22:24:21.318Z,25.02
2022-11-17T22:26:48.573Z,26.42
2022-11-17T22:29:20.501Z,29.25
2022-11-17T22:31:49.531Z,27.25
2022-11-17T22:34:17.338Z,26.98
2022-11-17T22:36:44.564Z,24.63
2022-11-17T22:39:11.932Z,24.80
2022-11-17T22:41:39.988Z,29.50
2022-11-17T22:44:07.151Z,23.95
2022-11-17T22:46:36.115Z,31.05
2022-11-17T22:49:03.358Z,26.20
2022-11-17T22:51:48.924Z,29.35
2022-11-17T22:54:16.042Z,32.58
2022-11-17T22:56:43.091Z,26.73
2022-11-17T22:59:10.365Z,26.02
2022-11-17T23:01:37.779Z,26.15
2022-11-17T23:04:05.957Z,27.92
2022-11-17T23:06:33.077Z,29.40
2022-11-17T23:09:00.194Z,26.52
2022-11-17T23:11:36.917Z,23.83
2022-11-17T23:14:08.123Z,27.27
2022-11-17T23:16:36.824Z,27.83
2022-11-17T23:19:05.240Z,23.50
2022-11-17T23:21:32.472Z,25.58
2022-11-17T23:23:59.724Z,26.83
2022-11-17T23:26:27.561Z,25.05
2022-11-17T23:28:54.656Z,24.30
2022-11-17T23:31:21.783Z,28.63
2022-11-17T23:33:49.285Z,29.17
2022-11-17T23:36:20.528Z,26.52
2022-11-17T23:38:48.705Z,27.30
2022-11-17T23:41:19.472Z,25.95
2022-11-17T23:43:49.582Z,28.77
2022-11-17T23:46:20.283Z,25.08
2022-11-17T23:48:47.597Z,23.33
2022-11-17T23:51:18.928Z,26.90
2022-11-17T23:53:46.938Z,26.77
2022-11-17T23:56:15.403Z,25.00
2022-11-17T23:58:43.465Z,28.05
